createdAt,value
2023-01-27T00:01:26.480Z,94.49
2023-01-27T00:03:53.100Z,94.76
2023-01-27T00:06:22.073Z,95.15
2023-01-27T00:09:01.475Z,94.56
2023-01-27T00:11:46.447Z,94.37
2023-01-27T00:14:13.042Z,94.65
2023-01-27T00:16:43.331Z,94.69
2023-01-27T00:19:23.449Z,95.16
2023-01-27T00:22:11.975Z,94.70
2023-01-27T00:24:39.207Z,94.31
2023-01-27T00:27:11.001Z,94.68
2023-01-27T00:29:38.766Z,94.75
2023-01-27T00:32:24.861Z,95.23
2023-01-27T00:34:52.966Z,94.75
2023-01-27T00:37:19.724Z,94.54
2023-01-27T00:39:47.947Z,94.77
2023-01-27T00:42:22.963Z,94.78
2023-01-27T00:45:08.629Z,94.99
2023-01-27T00:47:35.259Z,94.81
2023-01-27T00:50:06.075Z,95.09
2023-01-27T00:52:36.094Z,94.84
2023-01-27T00:55:02.728Z,94.78
2023-01-27T00:57:32.341Z,94.50
2023-01-27T01:00:02.642Z,94.61
2023-01-27T01:02:29.413Z,94.83
2023-01-27T01:04:56.066Z,94.82
2023-01-27T01:07:23.914Z,94.58
2023-01-27T01:09:59.531Z,94.54
2023-01-27T01:12:27.197Z,94.67
2023-01-27T01:14:59.790Z,94.63
2023-01-27T01:17:27.400Z,94.64
2023-01-27T01:20:00.421Z,95.17
2023-01-27T01:22:31.085Z,94.77
2023-01-27T01:25:04.222Z,95.08
2023-01-27T01:27:40.255Z,95.17
2023-01-27T01:30:07.532Z,95.18
2023-01-27T01:32:35.139Z,95.06
2023-01-27T01:35:02.482Z,95.20
2023-01-27T01:37:29.350Z,95.17
2023-01-27T01:39:56.548Z,95.24
2023-01-27T01:42:48.944Z,95.25
2023-01-27T01:45:34.096Z,95.23
2023-01-27T01:48:08.380Z,95.57
2023-01-27T01:50:35.230Z,96.03
2023-01-27T01:53:05.274Z,95.67
2023-01-27T01:55:39.929Z,95.77
2023-01-27T01:58:15.520Z,95.91
2023-01-27T02:00:46.251Z,96.03
2023-01-27T02:03:18.850Z,95.97
2023-01-27T02:05:50.420Z,96.08
2023-01-27T02:08:26.264Z,95.96
2023-01-27T02:10:54.604Z,95.91
2023-01-27T02:13:23.405Z,95.58
2023-01-27T02:15:53.317Z,95.37
2023-01-27T02:18:28.314Z,95.65
2023-01-27T02:20:56.278Z,95.43
2023-01-27T02:23:54.146Z,95.65
2023-01-27T02:26:37.027Z,95.25
2023-01-27T02:29:10.401Z,95.65
2023-01-27T02:31:46.096Z,95.50
2023-01-27T02:34:16.941Z,95.37
2023-01-27T02:36:59.094Z,95.12
2023-01-27T02:39:40.885Z,95.24
2023-01-27T02:42:13.078Z,95.09
2023-01-27T02:44:39.817Z,95.03
2023-01-27T02:47:08.498Z,95.14
2023-01-27T02:49:35.718Z,94.56
2023-01-27T02:52:04.691Z,94.23
2023-01-27T02:54:31.863Z,94.36
2023-01-27T02:56:58.918Z,94.61
2023-01-27T02:59:26.055Z,94.17
2023-01-27T03:01:58.474Z,94.30
2023-01-27T03:04:26.609Z,93.95
2023-01-27T03:06:54.188Z,93.80
2023-01-27T03:09:30.689Z,94.15
2023-01-27T03:12:16.208Z,93.98
2023-01-27T03:15:03.296Z,94.05
2023-01-27T03:17:48.846Z,93.96
2023-01-27T03:20:17.055Z,94.02
2023-01-27T03:22:47.543Z,94.31
2023-01-27T03:25:18.195Z,93.70
2023-01-27T03:27:45.119Z,93.65
2023-01-27T03:30:12.219Z,93.77
2023-01-27T03:32:47.720Z,93.52
2023-01-27T03:35:16.529Z,93.50
2023-01-27T03:38:12.022Z,93.93
2023-01-27T03:40:57.358Z,93.19
2023-01-27T03:43:45.769Z,93.27
2023-01-27T03:46:24.407Z,93.22
2023-01-27T03:48:56.863Z,93.66
2023-01-27T03:51:26.919Z,93.23
2023-01-27T03:53:59.904Z,92.83
2023-01-27T03:56:33.106Z,92.85
2023-01-27T03:58:59.971Z,92.59
2023-01-27T04:01:27.312Z,92.92
2023-01-27T04:04:16.944Z,92.94
2023-01-27T04:06:58.888Z,92.85
2023-01-27T04:09:28.805Z,92.84
2023-01-27T04:12:00.406Z,93.14
2023-01-27T04:14:37.991Z,92.98
2023-01-27T04:17:09.803Z,93.40
2023-01-27T04:19:39.986Z,93.44
2023-01-27T04:22:19.661Z,93.58
2023-01-27T04:24:50.669Z,93.58
2023-01-27T04:27:23.285Z,93.14
2023-01-27T04:29:50.896Z,92.77
2023-01-27T04:32:17.534Z,92.84
2023-01-27T04:34:48.315Z,92.69
2023-01-27T04:37:19.530Z,92.94
2023-01-27T04:39:50.673Z,92.65
2023-01-27T04:42:20.567Z,92.73
2023-01-27T04:44:47.238Z,92.98
2023-01-27T04:47:13.906Z,93.14
2023-01-27T04:49:41.082Z,93.68
2023-01-27T04:52:07.699Z,93.74
2023-01-27T04:54:34.313Z,93.50
2023-01-27T04:57:07.783Z,93.54
2023-01-27T04:59:37.925Z,93.33
2023-01-27T05:02:04.851Z,93.13
2023-01-27T05:04:32.518Z,93.34
2023-01-27T05:06:59.165Z,93.40
2023-01-27T05:09:26.688Z,93.92
2023-01-27T05:11:53.324Z,93.90
2023-01-27T05:14:20.204Z,94.17
2023-01-27T05:16:53.008Z,94.07
2023-01-27T05:19:19.801Z,93.59
2023-01-27T05:21:46.449Z,93.57
2023-01-27T05:24:13.199Z,93.76
2023-01-27T05:26:45.572Z,94.62
2023-01-27T05:29:15.104Z,94.40
2023-01-27T05:31:41.975Z,94.99
2023-01-27T05:34:10.121Z,94.75
2023-01-27T05:36:40.363Z,94.03
2023-01-27T05:39:08.909Z,94.11
2023-01-27T05:41:36.088Z,94.24
2023-01-27T05:44:04.670Z,94.00
2023-01-27T05:46:38.316Z,94.33
2023-01-27T05:49:06.174Z,93.74
2023-01-27T05:51:37.600Z,94.35
2023-01-27T05:54:08.393Z,94.21
2023-01-27T05:56:44.570Z,94.91
2023-01-27T05:59:23.263Z,94.79
2023-01-27T06:01:51.510Z,94.92
2023-01-27T06:04:18.208Z,94.74
2023-01-27T06:06:57.903Z,95.38
2023-01-27T06:09:33.082Z,95.27
2023-01-27T06:12:02.631Z,95.39
2023-01-27T06:14:31.832Z,95.72
2023-01-27T06:17:01.592Z,95.40
2023-01-27T06:19:33.348Z,95.73
2023-01-27T06:22:04.114Z,95.22
2023-01-27T06:24:31.393Z,94.95
2023-01-27T06:26:58.675Z,95.35
2023-01-27T06:29:28.011Z,95.62
2023-01-27T06:31:56.489Z,95.28
2023-01-27T06:34:29.765Z,95.23
2023-01-27T06:37:02.596Z,95.59
2023-01-27T06:39:29.336Z,95.78
2023-01-27T06:42:02.074Z,96.42
2023-01-27T06:44:36.174Z,97.18
2023-01-27T06:47:05.466Z,97.20
2023-01-27T06:49:42.377Z,96.41
2023-01-27T06:52:09.617Z,96.24
2023-01-27T06:54:39.185Z,96.44
2023-01-27T06:57:09.530Z,95.96
2023-01-27T06:59:36.273Z,96.22
2023-01-27T07:02:02.889Z,96.07
2023-01-27T07:04:35.977Z,96.93
2023-01-27T07:07:05.501Z,96.34
2023-01-27T07:09:37.595Z,95.94
2023-01-27T07:12:13.317Z,96.13
2023-01-27T07:14:40.000Z,95.74
2023-01-27T07:17:08.197Z,96.01
2023-01-27T07:19:35.268Z,96.11
2023-01-27T07:22:02.715Z,96.07
2023-01-27T07:24:29.312Z,96.72
2023-01-27T07:26:55.995Z,96.27
2023-01-27T07:29:22.807Z,95.78
2023-01-27T07:31:49.565Z,95.85
2023-01-27T07:34:16.373Z,95.76
2023-01-27T07:36:43.082Z,95.87
2023-01-27T07:39:09.732Z,95.97
2023-01-27T07:41:36.397Z,95.86
2023-01-27T07:44:03.034Z,95.73
2023-01-27T07:46:29.683Z,95.95
2023-01-27T07:48:58.969Z,96.14
2023-01-27T07:51:25.591Z,96.50
2023-01-27T07:53:55.076Z,96.32
2023-01-27T07:56:21.727Z,96.49
2023-01-27T07:58:48.412Z,96.50
2023-01-27T08:01:19.926Z,96.64
2023-01-27T08:03:46.536Z,97.07
2023-01-27T08:06:13.382Z,97.06
2023-01-27T08:08:42.982Z,97.11
2023-01-27T08:11:13.033Z,96.96
2023-01-27T08:13:40.055Z,97.15
2023-01-27T08:16:09.069Z,97.18
2023-01-27T08:18:35.804Z,97.16
2023-01-27T08:21:05.837Z,96.99
2023-01-27T08:23:33.380Z,97.21
2023-01-27T08:26:05.556Z,97.53
2023-01-27T08:28:34.321Z,97.17
2023-01-27T08:31:08.979Z,97.23
2023-01-27T08:33:36.469Z,96.89
2023-01-27T08:36:13.940Z,97.01
2023-01-27T08:38:49.425Z,96.92
2023-01-27T08:41:26.767Z,97.02
2023-01-27T08:43:55.016Z,97.08
2023-01-27T08:46:24.730Z,96.62
2023-01-27T08:48:51.876Z,96.75
2023-01-27T08:51:18.601Z,96.59
2023-01-27T08:53:45.492Z,96.87
2023-01-27T08:56:14.800Z,97.01
2023-01-27T08:58:42.376Z,96.96
2023-01-27T09:01:12.550Z,97.34
2023-01-27T09:03:39.442Z,97.25
2023-01-27T09:06:10.867Z,97.18
2023-01-27T09:08:37.852Z,97.50
2023-01-27T09:11:13.939Z,97.30
2023-01-27T09:13:41.127Z,97.09
2023-01-27T09:16:08.205Z,97.06
2023-01-27T09:18:39.584Z,97.13
2023-01-27T09:21:07.056Z,97.04
2023-01-27T09:23:34.993Z,97.35
2023-01-27T09:26:01.711Z,97.29
2023-01-27T09:28:28.548Z,96.89
2023-01-27T09:30:59.456Z,97.09
2023-01-27T09:33:27.260Z,96.97
2023-01-27T09:35:57.455Z,97.15
2023-01-27T09:38:28.877Z,97.09
2023-01-27T09:41:29.936Z,97.46
2023-01-27T09:44:11.808Z,97.71
2023-01-27T09:47:12.039Z,97.30
2023-01-27T09:50:07.241Z,97.14
2023-01-27T09:53:01.026Z,97.55
2023-01-27T09:55:33.473Z,97.29
2023-01-27T09:58:27.467Z,97.42
2023-01-27T10:00:54.092Z,97.49
2023-01-27T10:03:32.792Z,97.30
2023-01-27T10:06:28.603Z,97.44
2023-01-27T10:09:11.996Z,97.63
2023-01-27T10:12:01.041Z,97.58
2023-01-27T10:14:36.633Z,97.73
2023-01-27T10:17:22.151Z,97.62
2023-01-27T10:19:48.861Z,97.40
2023-01-27T10:22:33.939Z,97.27
2023-01-27T10:25:24.198Z,97.41
2023-01-27T10:27:59.628Z,97.20
2023-01-27T10:30:36.637Z,97.49
2023-01-27T10:33:32.632Z,97.51
2023-01-27T10:36:04.659Z,97.46
2023-01-27T10:38:51.185Z,97.31
2023-01-27T10:41:23.529Z,97.29
2023-01-27T10:44:12.950Z,97.43
2023-01-27T10:47:07.283Z,97.40
2023-01-27T10:49:40.813Z,97.38
2023-01-27T10:52:16.120Z,97.15
2023-01-27T10:54:50.931Z,96.72
2023-01-27T10:58:05.407Z,97.19
2023-01-27T11:01:12.914Z,97.12
2023-01-27T11:03:38.325Z,96.66
2023-01-27T11:06:10.245Z,96.82
2023-01-27T11:08:40.784Z,96.86
2023-01-27T11:11:30.450Z,96.36
2023-01-27T11:14:27.617Z,96.76
2023-01-27T11:17:17.613Z,96.74
2023-01-27T11:19:56.986Z,97.08
2023-01-27T11:22:31.794Z,96.71
2023-01-27T11:25:17.574Z,96.22
2023-01-27T11:28:07.159Z,95.89
2023-01-27T11:30:50.183Z,96.39
2023-01-27T11:33:24.548Z,96.41
2023-01-27T11:35:53.557Z,95.77
2023-01-27T11:38:22.813Z,96.11
2023-01-27T11:40:53.234Z,96.15
2023-01-27T11:43:27.002Z,96.25
2023-01-27T11:46:07.788Z,96.17
2023-01-27T11:48:42.255Z,96.10
2023-01-27T11:51:22.281Z,95.94
2023-01-27T11:54:25.847Z,95.74
2023-01-27T11:56:52.558Z,95.90
2023-01-27T11:59:39.753Z,95.92
2023-01-27T12:02:09.281Z,95.55
2023-01-27T12:04:38.749Z,95.84
2023-01-27T12:07:12.911Z,95.32
2023-01-27T12:09:44.447Z,95.42
2023-01-27T12:12:14.005Z,95.49
2023-01-27T12:14:48.712Z,95.53
2023-01-27T12:17:24.207Z,95.30
2023-01-27T12:19:54.340Z,95.62
2023-01-27T12:22:32.727Z,95.65
2023-01-27T12:25:03.557Z,95.37
2023-01-27T12:27:43.591Z,95.30
2023-01-27T12:30:23.988Z,94.80
2023-01-27T12:32:52.142Z,95.43
2023-01-27T12:35:26.418Z,94.70
2023-01-27T12:38:05.329Z,94.96
2023-01-27T12:40:33.724Z,95.36
2023-01-27T12:43:14.893Z,95.36
2023-01-27T12:45:43.654Z,95.49
2023-01-27T12:48:13.103Z,95.56
2023-01-27T12:50:54.813Z,95.33
2023-01-27T12:53:29.786Z,94.25
2023-01-27T12:55:59.142Z,93.91
2023-01-27T12:58:31.481Z,94.20
2023-01-27T13:01:01.297Z,94.18
2023-01-27T13:03:29.578Z,94.23
2023-01-27T13:06:03.454Z,93.94
2023-01-27T13:08:33.379Z,93.83
2023-01-27T13:11:02.586Z,92.89
2023-01-27T13:13:30.923Z,92.89
2023-01-27T13:16:08.484Z,92.03
2023-01-27T13:18:42.390Z,91.61
2023-01-27T13:21:21.415Z,91.22
2023-01-27T13:23:50.488Z,91.74
2023-01-27T13:26:21.749Z,90.94
2023-01-27T13:29:00.132Z,91.27
2023-01-27T13:31:53.233Z,90.80
2023-01-27T13:34:52.838Z,91.32
2023-01-27T13:37:26.739Z,90.97
2023-01-27T13:39:57.049Z,91.66
2023-01-27T13:42:33.318Z,91.02
2023-01-27T13:45:23.269Z,91.03
2023-01-27T13:48:04.984Z,91.26
2023-01-27T13:50:39.587Z,91.31
2023-01-27T13:53:11.580Z,91.46
2023-01-27T13:55:53.248Z,91.31
2023-01-27T13:58:34.221Z,91.32
2023-01-27T14:01:19.405Z,90.69
2023-01-27T14:04:04.562Z,90.92
2023-01-27T14:06:50.000Z,90.90
2023-01-27T14:09:22.535Z,90.74
2023-01-27T14:12:11.889Z,91.82
2023-01-27T14:14:57.496Z,91.65
2023-01-27T14:17:39.665Z,90.91
2023-01-27T14:20:32.998Z,90.76
2023-01-27T14:23:18.195Z,91.56
2023-01-27T14:26:01.117Z,91.17
2023-01-27T14:28:36.715Z,90.78
2023-01-27T14:31:11.076Z,90.95
2023-01-27T14:34:02.111Z,90.37
2023-01-27T14:36:38.653Z,90.79
2023-01-27T14:39:31.208Z,91.37
2023-01-27T14:42:05.679Z,90.69
2023-01-27T14:45:03.846Z,90.57
2023-01-27T14:48:15.633Z,90.26
2023-01-27T14:50:48.390Z,89.95
2023-01-27T14:53:42.278Z,89.24
2023-01-27T14:56:13.246Z,89.30
2023-01-27T14:58:55.300Z,89.47
2023-01-27T15:01:45.213Z,88.69
2023-01-27T15:04:35.462Z,88.48
2023-01-27T15:07:11.675Z,88.84
2023-01-27T15:10:10.967Z,88.80
2023-01-27T15:12:59.558Z,88.51
2023-01-27T15:16:04.204Z,88.22
2023-01-27T15:18:36.780Z,89.21
2023-01-27T15:21:31.345Z,87.74
2023-01-27T15:24:01.114Z,88.85
2023-01-27T15:26:30.378Z,88.79
2023-01-27T15:28:59.724Z,87.94
2023-01-27T15:31:29.203Z,87.88
2023-01-27T15:34:10.668Z,87.85
2023-01-27T15:36:58.992Z,87.44
2023-01-27T15:39:40.525Z,88.04
2023-01-27T15:42:11.824Z,87.64
2023-01-27T15:44:44.568Z,87.57
2023-01-27T15:47:28.574Z,87.83
2023-01-27T15:50:13.180Z,87.14
2023-01-27T15:52:45.553Z,87.22
2023-01-27T15:55:33.248Z,87.20
2023-01-27T15:58:35.741Z,86.79
2023-01-27T16:01:05.884Z,86.63
2023-01-27T16:03:44.092Z,86.54
2023-01-27T16:06:16.975Z,86.80
2023-01-27T16:08:49.993Z,87.06
2023-01-27T16:11:28.512Z,86.74
2023-01-27T16:14:13.841Z,86.66
2023-01-27T16:16:50.182Z,86.24
2023-01-27T16:19:28.736Z,87.01
2023-01-27T16:22:12.536Z,86.73
2023-01-27T16:24:51.264Z,86.66
2023-01-27T16:27:41.826Z,85.54
2023-01-27T16:30:49.067Z,85.61
2023-01-27T16:33:42.056Z,85.14
2023-01-27T16:36:14.337Z,84.76
2023-01-27T16:38:47.201Z,85.02
2023-01-27T16:41:19.309Z,84.54
2023-01-27T16:43:57.445Z,84.61
2023-01-27T16:46:47.071Z,84.45
2023-01-27T16:49:48.850Z,84.55
2023-01-27T16:52:41.197Z,84.51
2023-01-27T16:55:22.485Z,84.46
2023-01-27T16:57:54.258Z,84.70
2023-01-27T17:00:28.638Z,84.19
2023-01-27T17:02:59.371Z,84.31
2023-01-27T17:05:27.197Z,84.35
2023-01-27T17:08:17.528Z,84.73
2023-01-27T17:10:56.551Z,85.40
2023-01-27T17:13:33.280Z,85.21
2023-01-27T17:16:01.845Z,84.85
2023-01-27T17:18:50.732Z,85.31
2023-01-27T17:21:39.530Z,84.55
2023-01-27T17:24:23.157Z,85.41
2023-01-27T17:26:56.834Z,84.40
2023-01-27T17:29:30.868Z,84.25
2023-01-27T17:31:57.722Z,84.27
2023-01-27T17:34:25.863Z,84.25
2023-01-27T17:37:22.150Z,84.66
2023-01-27T17:39:54.154Z,85.28
2023-01-27T17:42:22.030Z,85.01
2023-01-27T17:44:49.286Z,84.44
2023-01-27T17:47:18.264Z,84.15
2023-01-27T17:49:47.412Z,84.13
2023-01-27T17:52:25.081Z,83.91
2023-01-27T17:54:52.471Z,83.29
2023-01-27T17:57:26.527Z,83.50
2023-01-27T18:00:01.338Z,82.73
2023-01-27T18:02:31.756Z,82.58
2023-01-27T18:05:14.048Z,82.19
2023-01-27T18:07:41.011Z,82.28
2023-01-27T18:10:36.187Z,82.06
2023-01-27T18:13:18.094Z,81.92
2023-01-27T18:15:58.794Z,81.52
2023-01-27T18:18:35.723Z,80.57
2023-01-27T18:21:09.641Z,81.01
2023-01-27T18:23:43.338Z,81.52
2023-01-27T18:26:23.888Z,80.51
2023-01-27T18:28:55.306Z,80.61
2023-01-27T18:31:32.583Z,80.93
2023-01-27T18:34:25.911Z,80.29
2023-01-27T18:37:06.208Z,79.88
2023-01-27T18:39:37.420Z,79.92
2023-01-27T18:42:13.037Z,80.20
2023-01-27T18:44:39.744Z,80.09
2023-01-27T18:47:50.987Z,80.54
2023-01-27T18:50:22.924Z,80.68
2023-01-27T18:52:51.070Z,80.51
2023-01-27T18:55:23.334Z,80.66
2023-01-27T18:57:52.885Z,80.54
2023-01-27T19:00:22.359Z,79.78
2023-01-27T19:02:59.275Z,80.56
2023-01-27T19:05:29.038Z,80.13
2023-01-27T19:07:55.761Z,80.27
2023-01-27T19:10:28.638Z,80.64
2023-01-27T19:13:00.114Z,80.26
2023-01-27T19:15:35.055Z,80.97
2023-01-27T19:18:12.258Z,80.09
2023-01-27T19:20:39.257Z,80.93
2023-01-27T19:23:05.899Z,80.63
2023-01-27T19:25:32.571Z,80.54
2023-01-27T19:28:04.555Z,80.67
2023-01-27T19:30:36.333Z,81.41
2023-01-27T19:33:06.537Z,81.03
2023-01-27T19:35:33.143Z,80.30
2023-01-27T19:38:04.812Z,80.84
2023-01-27T19:40:31.955Z,81.15
2023-01-27T19:42:58.792Z,81.67
2023-01-27T19:45:32.883Z,81.42
2023-01-27T19:48:00.020Z,81.63
2023-01-27T19:50:32.313Z,81.31
2023-01-27T19:52:59.003Z,81.72
2023-01-27T19:55:25.821Z,81.43
2023-01-27T19:57:52.960Z,81.38
2023-01-27T20:00:24.388Z,81.48
2023-01-27T20:02:51.169Z,80.87
2023-01-27T20:05:18.715Z,80.96
2023-01-27T20:07:46.048Z,81.06
2023-01-27T20:10:19.253Z,81.59
2023-01-27T20:12:54.585Z,81.28
2023-01-27T20:15:24.145Z,81.10
2023-01-27T20:17:54.604Z,81.94
2023-01-27T20:20:22.452Z,81.34
2023-01-27T20:22:49.387Z,80.96
2023-01-27T20:25:19.406Z,81.15
2023-01-27T20:27:52.092Z,80.86
2023-01-27T20:30:23.485Z,80.28
2023-01-27T20:32:50.741Z,80.47
2023-01-27T20:35:24.864Z,80.71
2023-01-27T20:37:53.487Z,80.35
2023-01-27T20:40:28.491Z,80.00
2023-01-27T20:42:55.613Z,80.51
2023-01-27T20:45:22.996Z,81.04
2023-01-27T20:47:50.871Z,80.98
2023-01-27T20:50:17.689Z,80.64
2023-01-27T20:52:44.936Z,80.75
2023-01-27T20:55:13.946Z,80.61
2023-01-27T20:57:41.120Z,80.61
2023-01-27T21:00:19.044Z,80.08
2023-01-27T21:02:45.940Z,80.43
2023-01-27T21:05:14.474Z,80.45
2023-01-27T21:07:41.586Z,80.01
2023-01-27T21:10:11.764Z,79.67
2023-01-27T21:12:38.596Z,79.94
2023-01-27T21:15:09.841Z,80.12
2023-01-27T21:17:36.750Z,80.38
2023-01-27T21:20:03.937Z,80.58
2023-01-27T21:22:30.817Z,80.52
2023-01-27T21:24:57.572Z,80.32
2023-01-27T21:27:24.282Z,80.24
2023-01-27T21:29:53.678Z,80.27
2023-01-27T21:32:22.697Z,80.80
2023-01-27T21:34:49.353Z,80.67
2023-01-27T21:37:18.935Z,81.05
2023-01-27T21:39:45.716Z,81.07
2023-01-27T21:42:14.340Z,81.63
2023-01-27T21:44:59.830Z,81.36
2023-01-27T21:47:28.045Z,82.06
2023-01-27T21:50:03.549Z,82.01
2023-01-27T21:52:34.323Z,82.00
2023-01-27T21:55:15.395Z,82.26
2023-01-27T21:57:43.466Z,82.31
2023-01-27T22:00:10.976Z,82.21
2023-01-27T22:02:41.727Z,82.44
2023-01-27T22:05:10.395Z,82.39
2023-01-27T22:07:41.994Z,82.95
2023-01-27T22:10:14.178Z,83.38
2023-01-27T22:12:43.721Z,83.12
2023-01-27T22:15:11.993Z,83.34
2023-01-27T22:17:38.852Z,84.44
2023-01-27T22:20:15.359Z,84.56
2023-01-27T22:22:45.297Z,85.00
2023-01-27T22:25:14.655Z,85.52
2023-01-27T22:27:42.418Z,85.93
2023-01-27T22:30:14.004Z,85.94
2023-01-27T22:32:44.252Z,86.09
2023-01-27T22:35:14.129Z,86.22
2023-01-27T22:37:41.032Z,86.47
2023-01-27T22:40:08.421Z,86.91
2023-01-27T22:42:41.172Z,87.04
2023-01-27T22:45:09.483Z,87.68
2023-01-27T22:47:36.470Z,88.26
2023-01-27T22:50:03.907Z,88.63
2023-01-27T22:52:30.928Z,89.63
2023-01-27T22:54:57.874Z,89.42
2023-01-27T22:57:30.268Z,89.43
2023-01-27T22:59:58.969Z,89.47
2023-01-27T23:02:30.093Z,89.75
2023-01-27T23:04:58.414Z,88.62
2023-01-27T23:07:26.151Z,88.00
2023-01-27T23:09:54.906Z,87.94
2023-01-27T23:12:21.743Z,88.16
2023-01-27T23:14:51.423Z,87.95
2023-01-27T23:17:18.066Z,88.00
2023-01-27T23:19:48.002Z,88.87
2023-01-27T23:22:15.416Z,89.25
2023-01-27T23:24:51.189Z,89.92
2023-01-27T23:27:17.962Z,90.30
2023-01-27T23:29:47.955Z,90.34
2023-01-27T23:32:15.389Z,90.13
2023-01-27T23:34:42.110Z,89.95
2023-01-27T23:37:11.702Z,90.36
2023-01-27T23:39:38.343Z,91.04
2023-01-27T23:42:07.770Z,91.57
2023-01-27T23:44:34.888Z,91.53
2023-01-27T23:47:01.661Z,91.88
2023-01-27T23:49:37.523Z,92.15
2023-01-27T23:52:10.738Z,91.96
2023-01-27T23:54:37.489Z,91.86
2023-01-27T23:57:15.105Z,92.24
2023-01-27T23:59:50.156Z,92.47
